createdAt,value
2022-08-07T00:00:59.976Z,79.77
2022-08-07T00:04:15.488Z,79.72
2022-08-07T00:07:18.880Z,79.66
2022-08-07T00:10:26.127Z,79.57
2022-08-07T00:13:29.661Z,79.78
2022-08-07T00:16:31.783Z,79.69
2022-08-07T00:20:00.295Z,79.92
2022-08-07T00:22:56.743Z,79.83
2022-08-07T00:26:06.870Z,80.15
2022-08-07T00:29:17.683Z,80.64
2022-08-07T00:32:28.410Z,80.88
2022-08-07T00:35:31.050Z,81.57
2022-08-07T00:38:39.130Z,82.04
2022-08-07T00:41:53.450Z,82.01
2022-08-07T00:45:07.021Z,82.21
2022-08-07T00:48:11.268Z,82.49
2022-08-07T00:51:14.466Z,82.71
2022-08-07T00:54:19.605Z,82.67
2022-08-07T00:57:25.822Z,82.62
2022-08-07T01:00:29.076Z,82.14
2022-08-07T01:03:55.419Z,81.94
2022-08-07T01:06:57.071Z,82.37
2022-08-07T01:10:05.935Z,82.77
2022-08-07T01:13:10.435Z,82.95
2022-08-07T01:16:30.297Z,82.45
2022-08-07T01:19:38.487Z,81.61
2022-08-07T01:22:57.811Z,81.44
2022-08-07T01:26:12.223Z,81.10
2022-08-07T01:29:18.138Z,80.74
2022-08-07T01:32:22.941Z,80.50
2022-08-07T01:35:52.798Z,80.34
2022-08-07T01:38:51.456Z,80.68
2022-08-07T01:42:36.885Z,81.12
2022-08-07T01:45:23.095Z,81.34
2022-08-07T01:48:42.411Z,81.61
2022-08-07T01:52:02.301Z,82.26
2022-08-07T01:55:09.862Z,82.59
2022-08-07T01:58:33.358Z,82.56
2022-08-07T02:02:02.053Z,82.21
2022-08-07T02:05:43.042Z,81.93
2022-08-07T02:08:42.543Z,81.99
2022-08-07T02:12:03.629Z,82.20
2022-08-07T02:15:12.704Z,82.59
2022-08-07T02:18:19.233Z,82.08
2022-08-07T02:21:22.356Z,81.74
2022-08-07T02:24:29.415Z,81.67
2022-08-07T02:27:34.315Z,81.61
2022-08-07T02:30:39.670Z,81.46
2022-08-07T02:34:01.654Z,81.28
2022-08-07T02:37:09.804Z,81.05
2022-08-07T02:40:31.115Z,81.04
2022-08-07T02:43:39.587Z,81.06
2022-08-07T02:46:46.711Z,81.28
2022-08-07T02:49:59.791Z,81.28
2022-08-07T02:53:11.831Z,81.28
2022-08-07T02:56:21.692Z,81.23
2022-08-07T02:59:27.357Z,81.30
2022-08-07T03:02:33.888Z,81.41
2022-08-07T03:05:38.137Z,81.86
2022-08-07T03:08:41.851Z,82.00
2022-08-07T03:11:52.175Z,82.24
2022-08-07T03:15:07.941Z,81.98
2022-08-07T03:18:11.748Z,82.22
2022-08-07T03:21:20.644Z,82.14
2022-08-07T03:24:26.842Z,82.24
2022-08-07T03:27:58.861Z,82.69
2022-08-07T03:31:16.688Z,82.81
2022-08-07T03:34:22.141Z,82.97
2022-08-07T03:37:37.467Z,82.88
2022-08-07T03:40:57.147Z,82.77
2022-08-07T03:44:01.581Z,83.06
2022-08-07T03:47:11.287Z,82.94
2022-08-07T03:50:23.011Z,83.03
2022-08-07T03:54:05.614Z,82.80
2022-08-07T03:57:03.502Z,82.89
2022-08-07T04:00:11.736Z,83.22
2022-08-07T04:03:25.650Z,83.24
2022-08-07T04:06:37.225Z,83.53
2022-08-07T04:09:50.697Z,83.06
2022-08-07T04:12:57.999Z,82.77
2022-08-07T04:16:02.516Z,82.97
2022-08-07T04:19:14.834Z,83.16
2022-08-07T04:22:29.378Z,83.00
2022-08-07T04:25:39.378Z,82.57
2022-08-07T04:28:45.127Z,82.01
2022-08-07T04:32:10.068Z,81.49
2022-08-07T04:35:11.459Z,81.32
2022-08-07T04:38:15.680Z,81.32
2022-08-07T04:41:20.960Z,81.90
2022-08-07T04:44:27.474Z,82.03
2022-08-07T04:47:59.571Z,82.34
2022-08-07T04:51:15.239Z,82.46
2022-08-07T04:54:30.759Z,82.29
2022-08-07T04:58:11.571Z,82.12
2022-08-07T05:01:55.930Z,82.16
2022-08-07T05:05:51.927Z,81.70
2022-08-07T05:09:01.854Z,81.17
2022-08-07T05:12:15.596Z,81.24
2022-08-07T05:15:37.650Z,81.10
2022-08-07T05:18:51.103Z,81.29
2022-08-07T05:22:00.093Z,81.59
2022-08-07T05:25:11.856Z,82.04
2022-08-07T05:28:32.497Z,82.35
2022-08-07T05:31:47.454Z,81.86
2022-08-07T05:34:56.907Z,82.15
2022-08-07T05:38:08.717Z,82.09
2022-08-07T05:41:15.922Z,82.08
2022-08-07T05:44:29.250Z,82.01
2022-08-07T05:47:38.520Z,81.87
2022-08-07T05:51:01.165Z,80.50
2022-08-07T05:54:12.342Z,78.86
2022-08-07T05:57:34.468Z,77.84
2022-08-07T06:00:39.361Z,76.69
2022-08-07T06:03:56.781Z,76.24
2022-08-07T06:07:05.933Z,74.68
2022-08-07T06:10:15.135Z,74.63
2022-08-07T06:13:19.272Z,73.81
2022-08-07T06:16:50.544Z,72.35
2022-08-07T06:20:04.138Z,71.92
2022-08-07T06:23:45.800Z,71.62
2022-08-07T06:26:32.959Z,70.85
2022-08-07T06:29:38.981Z,69.83
2022-08-07T06:32:43.387Z,68.99
2022-08-07T06:36:12.201Z,68.35
2022-08-07T06:40:16.309Z,67.28
2022-08-07T06:42:38.007Z,65.71
2022-08-07T06:45:49.961Z,65.30
2022-08-07T06:48:52.320Z,64.66
2022-08-07T06:51:59.592Z,63.73
2022-08-07T06:55:34.546Z,62.17
2022-08-07T06:58:40.835Z,61.23
2022-08-07T07:02:06.295Z,59.39
2022-08-07T07:05:09.287Z,59.05
2022-08-07T07:08:18.641Z,58.33
2022-08-07T07:12:07.823Z,57.93
2022-08-07T07:15:23.824Z,57.73
2022-08-07T07:18:49.961Z,56.73
2022-08-07T07:22:04.920Z,56.07
2022-08-07T07:26:32.619Z,55.37
2022-08-07T07:29:28.593Z,55.14
2022-08-07T07:32:16.975Z,52.73
2022-08-07T07:35:20.077Z,52.77
2022-08-07T07:38:26.258Z,52.29
2022-08-07T07:41:31.121Z,50.25
2022-08-07T07:44:53.404Z,50.70
2022-08-07T07:47:57.774Z,50.18
2022-08-07T07:51:02.148Z,50.09
2022-08-07T07:54:07.724Z,48.91
2022-08-07T07:57:13.154Z,48.56
2022-08-07T08:00:28.803Z,48.46
2022-08-07T08:04:11.086Z,44.84
2022-08-07T08:07:00.654Z,45.91
2022-08-07T08:10:07.778Z,46.05
2022-08-07T08:13:15.163Z,45.94
2022-08-07T08:16:25.046Z,46.69
2022-08-07T08:20:18.658Z,45.05
2022-08-07T08:23:12.816Z,45.42
2022-08-07T08:26:37.523Z,45.90
2022-08-07T08:29:55.512Z,45.70
2022-08-07T08:33:01.848Z,45.29
2022-08-07T08:36:08.736Z,45.32
2022-08-07T08:39:11.627Z,45.23
2022-08-07T08:42:25.842Z,47.07
2022-08-07T08:46:00.695Z,46.05
2022-08-07T08:49:02.936Z,44.39
2022-08-07T08:52:40.811Z,42.47
2022-08-07T08:56:08.329Z,42.63
2022-08-07T08:59:16.622Z,43.65
2022-08-07T09:02:42.222Z,42.93
2022-08-07T09:05:55.182Z,42.02
2022-08-07T09:09:01.787Z,43.16
2022-08-07T09:12:31.379Z,42.40
2022-08-07T09:16:22.086Z,41.28
2022-08-07T09:19:50.931Z,40.50
2022-08-07T09:24:33.423Z,40.33
2022-08-07T09:26:24.676Z,40.61
2022-08-07T09:30:03.804Z,39.95
2022-08-07T09:33:56.587Z,40.66
2022-08-07T09:37:06.326Z,41.11
2022-08-07T09:40:23.918Z,40.80
2022-08-07T09:44:06.779Z,39.96
2022-08-07T09:48:00.251Z,40.04
2022-08-07T09:52:10.134Z,39.58
2022-08-07T09:54:49.582Z,36.06
2022-08-07T09:58:32.220Z,36.37
2022-08-07T10:02:08.913Z,36.76
2022-08-07T10:06:00.878Z,36.69
2022-08-07T10:10:00.921Z,38.45
2022-08-07T10:13:55.020Z,38.41
2022-08-07T10:17:20.141Z,36.72
2022-08-07T10:20:51.373Z,37.77
2022-08-07T10:24:11.127Z,37.78
2022-08-07T10:27:46.082Z,36.26
2022-08-07T10:31:22.163Z,34.41
2022-08-07T10:35:03.613Z,34.74
2022-08-07T10:38:35.454Z,35.07
2022-08-07T10:42:09.249Z,36.77
2022-08-07T10:45:57.472Z,35.51
2022-08-07T10:49:45.599Z,33.66
2022-08-07T10:53:21.466Z,36.18
2022-08-07T10:56:41.275Z,35.21
2022-08-07T11:00:36.850Z,38.32
2022-08-07T11:04:05.352Z,36.05
2022-08-07T11:07:59.536Z,35.84
2022-08-07T11:11:10.563Z,33.54
2022-08-07T11:14:46.297Z,33.69
2022-08-07T11:17:49.611Z,35.07
2022-08-07T11:21:11.253Z,36.50
2022-08-07T11:24:38.248Z,35.73
2022-08-07T11:28:03.156Z,35.70
2022-08-07T11:31:13.034Z,36.59
2022-08-07T11:34:31.889Z,36.32
2022-08-07T11:37:58.217Z,37.76
2022-08-07T11:42:02.092Z,36.47
2022-08-07T11:45:13.026Z,35.63
2022-08-07T11:49:28.565Z,33.93
2022-08-07T11:52:38.959Z,35.94
2022-08-07T11:56:26.325Z,35.41
2022-08-07T12:00:10.247Z,33.59
2022-08-07T12:03:41.403Z,33.36
2022-08-07T12:07:01.055Z,32.41
2022-08-07T12:10:26.691Z,33.66
2022-08-07T12:13:52.719Z,33.91
2022-08-07T12:17:02.259Z,34.12
2022-08-07T12:20:30.123Z,35.02
2022-08-07T12:24:06.861Z,33.68
2022-08-07T12:27:16.776Z,34.99
2022-08-07T12:30:24.180Z,35.18
2022-08-07T12:34:00.735Z,32.94
2022-08-07T12:36:57.238Z,33.53
2022-08-07T12:40:03.852Z,35.89
2022-08-07T12:44:04.552Z,35.84
2022-08-07T12:47:08.609Z,34.56
2022-08-07T12:50:38.352Z,35.43
2022-08-07T12:54:03.173Z,33.54
2022-08-07T12:57:25.743Z,35.22
2022-08-07T13:00:52.289Z,35.48
2022-08-07T13:04:34.176Z,34.63
2022-08-07T13:08:12.051Z,34.29
2022-08-07T13:11:27.193Z,34.78
2022-08-07T13:14:51.052Z,35.43
2022-08-07T13:18:08.761Z,35.95
2022-08-07T13:21:37.854Z,36.81
2022-08-07T13:24:54.009Z,34.51
2022-08-07T13:28:13.877Z,37.25
2022-08-07T13:31:32.021Z,37.31
2022-08-07T13:34:50.734Z,36.90
2022-08-07T13:38:04.263Z,38.57
2022-08-07T13:41:48.774Z,41.07
2022-08-07T13:45:20.825Z,39.45
2022-08-07T13:48:34.161Z,41.47
2022-08-07T13:52:27.235Z,40.85
2022-08-07T13:55:10.837Z,40.51
2022-08-07T13:58:34.834Z,38.61
2022-08-07T14:01:51.153Z,41.80
2022-08-07T14:05:10.338Z,43.00
2022-08-07T14:08:15.320Z,44.62
2022-08-07T14:11:21.684Z,45.66
2022-08-07T14:14:43.738Z,46.92
2022-08-07T14:18:15.801Z,47.56
2022-08-07T14:22:00.597Z,47.73
2022-08-07T14:24:49.731Z,47.78
2022-08-07T14:28:10.608Z,48.34
2022-08-07T14:31:17.469Z,47.87
2022-08-07T14:34:29.173Z,48.83
2022-08-07T14:41:04.386Z,49.45
2022-08-07T14:44:11.564Z,49.00
2022-08-07T14:47:19.823Z,49.15
2022-08-07T14:50:26.354Z,48.71
2022-08-07T14:56:57.070Z,49.74
2022-08-07T15:00:04.999Z,50.43
2022-08-07T15:06:52.535Z,51.15
2022-08-07T15:10:01.344Z,51.16
2022-08-07T15:13:17.902Z,50.90
2022-08-07T15:16:37.104Z,51.85
2022-08-07T15:23:20.624Z,52.78
2022-08-07T15:26:35.475Z,53.02
2022-08-07T15:33:19.470Z,53.78
2022-08-07T15:37:03.459Z,54.29
2022-08-07T15:43:33.059Z,54.67
2022-08-07T15:46:51.908Z,54.38
2022-08-07T15:50:06.133Z,54.89
2022-08-07T15:53:25.850Z,55.74
2022-08-07T15:56:50.335Z,56.60
2022-08-07T15:59:56.658Z,56.00
2022-08-07T16:03:06.634Z,56.07
2022-08-07T16:06:36.246Z,56.00
2022-08-07T16:09:51.821Z,56.71
2022-08-07T16:13:57.617Z,56.45
2022-08-07T16:17:14.930Z,57.09
2022-08-07T16:20:43.166Z,56.42
2022-08-07T16:24:03.088Z,55.87
2022-08-07T16:27:40.774Z,54.72
2022-08-07T16:31:04.989Z,54.14
2022-08-07T16:34:26.896Z,53.97
2022-08-07T16:38:05.547Z,53.89
2022-08-07T16:41:13.300Z,55.06
2022-08-07T16:45:14.182Z,56.30
2022-08-07T16:49:04.197Z,57.24
2022-08-07T16:52:49.306Z,57.07
2022-08-07T16:55:58.203Z,57.31
2022-08-07T16:59:14.244Z,56.93
2022-08-07T17:02:53.662Z,57.78
2022-08-07T17:06:28.926Z,58.46
2022-08-07T17:10:05.455Z,58.52
2022-08-07T17:13:23.896Z,58.39
2022-08-07T17:16:55.916Z,58.93
2022-08-07T17:20:13.971Z,58.46
2022-08-07T17:23:32.403Z,59.12
2022-08-07T17:26:50.175Z,59.45
2022-08-07T17:30:14.354Z,59.42
2022-08-07T17:34:10.163Z,60.23
2022-08-07T17:37:08.890Z,60.24
2022-08-07T17:40:36.069Z,61.12
2022-08-07T17:44:02.321Z,61.70
2022-08-07T17:47:42.092Z,62.78
2022-08-07T17:50:54.385Z,62.80
2022-08-07T17:54:29.390Z,62.78
2022-08-07T17:57:59.275Z,63.89
2022-08-07T18:01:21.198Z,64.14
2022-08-07T18:04:35.085Z,65.60
2022-08-07T18:07:44.914Z,65.98
2022-08-07T18:12:07.414Z,65.85
2022-08-07T18:15:01.186Z,66.38
2022-08-07T18:18:47.544Z,67.01
2022-08-07T18:21:55.208Z,67.70
2022-08-07T18:25:23.791Z,68.21
2022-08-07T18:29:03.586Z,68.88
2022-08-07T18:32:32.299Z,69.15
2022-08-07T18:35:52.049Z,69.62
2022-08-07T18:40:06.871Z,69.76
2022-08-07T18:43:06.445Z,70.32
2022-08-07T18:46:25.819Z,70.54
2022-08-07T18:50:34.961Z,70.60
2022-08-07T18:53:39.154Z,70.75
2022-08-07T18:57:23.417Z,71.25
2022-08-07T19:00:32.591Z,70.77
2022-08-07T19:04:25.078Z,70.84
2022-08-07T19:07:52.049Z,71.16
2022-08-07T19:11:34.855Z,71.72
2022-08-07T19:16:03.741Z,72.03
2022-08-07T19:18:44.792Z,72.09
2022-08-07T19:22:05.269Z,72.43
2022-08-07T19:26:24.611Z,72.60
2022-08-07T19:30:54.691Z,73.26
2022-08-07T19:32:18.735Z,73.54
2022-08-07T19:35:33.528Z,73.97
2022-08-07T19:38:52.659Z,74.14
2022-08-07T19:42:08.547Z,74.22
2022-08-07T19:45:53.089Z,73.99
2022-08-07T19:48:59.534Z,74.04
2022-08-07T19:52:04.397Z,74.21
2022-08-07T19:55:10.995Z,74.18
2022-08-07T19:58:15.710Z,74.19
2022-08-07T20:01:20.553Z,74.39
2022-08-07T20:04:31.456Z,74.63
2022-08-07T20:07:46.156Z,74.65
2022-08-07T20:10:56.383Z,74.95
2022-08-07T20:14:07.199Z,75.04
2022-08-07T20:17:22.585Z,75.32
2022-08-07T20:20:27.602Z,75.62
2022-08-07T20:23:43.174Z,75.77
2022-08-07T20:26:55.857Z,75.93
2022-08-07T20:30:00.706Z,76.35
2022-08-07T20:33:24.486Z,76.80
2022-08-07T20:36:34.938Z,77.21
2022-08-07T20:40:02.200Z,77.22
2022-08-07T20:43:14.816Z,77.42
2022-08-07T20:46:32.229Z,77.65
2022-08-07T20:49:58.389Z,77.90
2022-08-07T20:53:13.391Z,78.23
2022-08-07T20:56:25.930Z,78.46
2022-08-07T21:00:08.102Z,78.89
2022-08-07T21:02:58.919Z,79.09
2022-08-07T21:06:21.687Z,79.16
2022-08-07T21:09:51.962Z,79.39
2022-08-07T21:13:00.815Z,79.46
2022-08-07T21:16:06.940Z,79.49
2022-08-07T21:19:14.485Z,79.49
2022-08-07T21:22:19.933Z,79.50
2022-08-07T21:25:38.650Z,79.48
2022-08-07T21:29:12.996Z,79.29
2022-08-07T21:32:46.840Z,79.29
2022-08-07T21:36:12.058Z,79.45
2022-08-07T21:39:48.078Z,79.63
2022-08-07T21:43:13.747Z,79.56
2022-08-07T21:46:32.339Z,79.75
2022-08-07T21:50:03.259Z,79.79
2022-08-07T21:53:17.096Z,80.03
2022-08-07T21:56:36.418Z,79.90
2022-08-07T22:00:22.306Z,79.81
2022-08-07T22:03:57.502Z,79.89
2022-08-07T22:07:06.917Z,79.99
2022-08-07T22:10:14.442Z,79.91
2022-08-07T22:13:24.577Z,79.71
2022-08-07T22:17:00.210Z,79.76
2022-08-07T22:20:24.645Z,79.71
2022-08-07T22:23:56.775Z,79.85
2022-08-07T22:28:02.984Z,79.67
2022-08-07T22:31:11.522Z,79.79
2022-08-07T22:34:53.428Z,80.03
2022-08-07T22:38:33.334Z,80.14
2022-08-07T22:42:16.145Z,80.39
2022-08-07T22:46:04.262Z,80.75
2022-08-07T22:49:28.105Z,80.90
2022-08-07T22:53:15.150Z,80.90
2022-08-07T22:56:30.089Z,81.03
2022-08-07T23:00:03.197Z,81.07
2022-08-07T23:03:57.374Z,80.86
2022-08-07T23:07:40.185Z,81.37
2022-08-07T23:10:53.674Z,81.69
2022-08-07T23:14:17.578Z,81.67
2022-08-07T23:17:42.276Z,81.90
2022-08-07T23:20:53.454Z,82.21
2022-08-07T23:24:18.934Z,82.40
2022-08-07T23:28:21.348Z,82.18
2022-08-07T23:34:23.082Z,82.21
2022-08-07T23:35:29.813Z,82.35
2022-08-07T23:38:46.824Z,82.42
2022-08-07T23:42:24.002Z,82.30
2022-08-07T23:46:02.657Z,82.40
2022-08-07T23:49:50.788Z,82.64
2022-08-07T23:53:08.694Z,82.71
2022-08-07T23:56:22.478Z,82.66
